sensor_id;sensor_type;location;lat;lon;timestamp;P1;durP1;ratioP1;P2;durP2;ratioP2
73154;SDS011;61364;52.418;7.382;2022-11-15T00:02:21;17.32;;;17.32;;
73154;SDS011;61364;52.418;7.382;2022-11-15T00:04:46;17.25;;;17.25;;
73154;SDS011;61364;52.418;7.382;2022-11-15T00:07:12;16.78;;;16.78;;
73154;SDS011;61364;52.418;7.382;2022-11-15T00:09:37;16.56;;;16.54;;
73154;SDS011;61364;52.418;7.382;2022-11-15T00:12:03;17.12;;;17.11;;
73154;SDS011;61364;52.418;7.382;2022-11-15T00:17:00;16.15;;;16.04;;
73154;SDS011;61364;52.418;7.382;2022-11-15T00:19:25;16.66;;;16.48;;
73154;SDS011;61364;52.418;7.382;2022-11-15T00:21:51;17.10;;;17.04;;
73154;SDS011;61364;52.418;7.382;2022-11-15T00:24:17;16.23;;;16.12;;
73154;SDS011;61364;52.418;7.382;2022-11-15T00:26:42;16.08;;;16.07;;
73154;SDS011;61364;52.418;7.382;2022-11-15T00:29:08;16.38;;;16.37;;
73154;SDS011;61364;52.418;7.382;2022-11-15T00:31:34;16.49;;;16.48;;
73154;SDS011;61364;52.418;7.382;2022-11-15T00:33:59;17.60;;;17.36;;
73154;SDS011;61364;52.418;7.382;2022-11-15T00:36:25;16.43;;;16.32;;
73154;SDS011;61364;52.418;7.382;2022-11-15T00:38:52;16.54;;;16.54;;
73154;SDS011;61364;52.418;7.382;2022-11-15T00:41:18;16.13;;;16.10;;
73154;SDS011;61364;52.418;7.382;2022-11-15T00:43:44;17.01;;;16.98;;
73154;SDS011;61364;52.418;7.382;2022-11-15T00:46:10;16.89;;;16.84;;
73154;SDS011;61364;52.418;7.382;2022-11-15T00:48:36;16.95;;;16.95;;
73154;SDS011;61364;52.418;7.382;2022-11-15T00:51:01;17.14;;;17.03;;
73154;SDS011;61364;52.418;7.382;2022-11-15T00:53:27;16.98;;;16.93;;
73154;SDS011;61364;52.418;7.382;2022-11-15T00:55:53;16.69;;;16.69;;
73154;SDS011;61364;52.418;7.382;2022-11-15T00:58:19;16.35;;;16.28;;
73154;SDS011;61364;52.418;7.382;2022-11-15T01:00:45;16.41;;;16.35;;
73154;SDS011;61364;52.418;7.382;2022-11-15T01:03:10;17.22;;;16.99;;
73154;SDS011;61364;52.418;7.382;2022-11-15T01:05:39;16.95;;;16.84;;
73154;SDS011;61364;52.418;7.382;2022-11-15T01:08:04;17.34;;;17.23;;
73154;SDS011;61364;52.418;7.382;2022-11-15T01:10:30;17.50;;;17.33;;
73154;SDS011;61364;52.418;7.382;2022-11-15T01:12:56;17.43;;;17.34;;
73154;SDS011;61364;52.418;7.382;2022-11-15T01:15:22;17.36;;;17.28;;
73154;SDS011;61364;52.418;7.382;2022-11-15T01:17:48;17.31;;;17.22;;
73154;SDS011;61364;52.418;7.382;2022-11-15T01:20:15;17.34;;;17.32;;
73154;SDS011;61364;52.418;7.382;2022-11-15T01:22:41;17.39;;;17.33;;
73154;SDS011;61364;52.418;7.382;2022-11-15T01:25:07;17.87;;;17.76;;
73154;SDS011;61364;52.418;7.382;2022-11-15T01:27:32;17.64;;;17.43;;
73154;SDS011;61364;52.418;7.382;2022-11-15T01:29:58;17.43;;;17.34;;
73154;SDS011;61364;52.418;7.382;2022-11-15T01:32:23;17.42;;;17.35;;
73154;SDS011;61364;52.418;7.382;2022-11-15T01:34:49;17.42;;;17.27;;
73154;SDS011;61364;52.418;7.382;2022-11-15T01:37:15;17.81;;;17.69;;
73154;SDS011;61364;52.418;7.382;2022-11-15T01:39:40;17.79;;;17.69;;
73154;SDS011;61364;52.418;7.382;2022-11-15T01:42:09;17.90;;;17.79;;
73154;SDS011;61364;52.418;7.382;2022-11-15T01:44:39;18.37;;;18.23;;
73154;SDS011;61364;52.418;7.382;2022-11-15T01:47:48;17.88;;;17.71;;
73154;SDS011;61364;52.418;7.382;2022-11-15T01:49:57;17.48;;;17.45;;
73154;SDS011;61364;52.418;7.382;2022-11-15T01:52:26;17.45;;;17.39;;
73154;SDS011;61364;52.418;7.382;2022-11-15T01:54:56;17.38;;;17.28;;
73154;SDS011;61364;52.418;7.382;2022-11-15T01:57:25;17.74;;;17.65;;
73154;SDS011;61364;52.418;7.382;2022-11-15T01:59:52;17.81;;;17.69;;
73154;SDS011;61364;52.418;7.382;2022-11-15T02:02:18;17.33;;;17.29;;
73154;SDS011;61364;52.418;7.382;2022-11-15T02:04:46;17.76;;;17.66;;
73154;SDS011;61364;52.418;7.382;2022-11-15T02:07:15;17.63;;;17.36;;
73154;SDS011;61364;52.418;7.382;2022-11-15T02:09:43;17.49;;;17.36;;
73154;SDS011;61364;52.418;7.382;2022-11-15T02:12:09;17.26;;;17.21;;
73154;SDS011;61364;52.418;7.382;2022-11-15T02:14:38;17.20;;;17.15;;
73154;SDS011;61364;52.418;7.382;2022-11-15T02:22:10;17.40;;;17.20;;
73154;SDS011;61364;52.418;7.382;2022-11-15T02:27:39;15.87;;;15.79;;
73154;SDS011;61364;52.418;7.382;2022-11-15T02:30:19;15.79;;;15.74;;
73154;SDS011;61364;52.418;7.382;2022-11-15T02:32:46;16.16;;;16.03;;
73154;SDS011;61364;52.418;7.382;2022-11-15T02:35:28;16.51;;;16.33;;
73154;SDS011;61364;52.418;7.382;2022-11-15T02:43:01;15.50;;;15.45;;
73154;SDS011;61364;52.418;7.382;2022-11-15T02:45:54;15.34;;;15.27;;
73154;SDS011;61364;52.418;7.382;2022-11-15T02:48:25;14.78;;;14.72;;
73154;SDS011;61364;52.418;7.382;2022-11-15T02:50:51;15.42;;;15.21;;
73154;SDS011;61364;52.418;7.382;2022-11-15T02:53:18;14.79;;;14.77;;
73154;SDS011;61364;52.418;7.382;2022-11-15T02:55:44;14.65;;;14.47;;
73154;SDS011;61364;52.418;7.382;2022-11-15T02:58:19;14.16;;;14.07;;
73154;SDS011;61364;52.418;7.382;2022-11-15T03:03:22;14.85;;;14.77;;
73154;SDS011;61364;52.418;7.382;2022-11-15T03:08:33;14.39;;;14.36;;
73154;SDS011;61364;52.418;7.382;2022-11-15T03:11:14;14.14;;;14.08;;
73154;SDS011;61364;52.418;7.382;2022-11-15T03:18:43;14.21;;;14.20;;
73154;SDS011;61364;52.418;7.382;2022-11-15T03:21:11;14.17;;;14.16;;
73154;SDS011;61364;52.418;7.382;2022-11-15T03:23:40;13.70;;;13.69;;
73154;SDS011;61364;52.418;7.382;2022-11-15T03:26:07;13.83;;;13.83;;
73154;SDS011;61364;52.418;7.382;2022-11-15T03:28:39;13.85;;;13.85;;
73154;SDS011;61364;52.418;7.382;2022-11-15T03:31:07;14.24;;;14.21;;
73154;SDS011;61364;52.418;7.382;2022-11-15T03:33:55;14.00;;;14.00;;
73154;SDS011;61364;52.418;7.382;2022-11-15T03:36:24;13.23;;;13.23;;
73154;SDS011;61364;52.418;7.382;2022-11-15T03:38:53;13.49;;;13.49;;
73154;SDS011;61364;52.418;7.382;2022-11-15T03:41:23;13.83;;;13.83;;
73154;SDS011;61364;52.418;7.382;2022-11-15T03:44:01;14.13;;;14.13;;
73154;SDS011;61364;52.418;7.382;2022-11-15T03:46:43;13.44;;;13.44;;
73154;SDS011;61364;52.418;7.382;2022-11-15T03:49:17;13.36;;;13.36;;
73154;SDS011;61364;52.418;7.382;2022-11-15T03:51:48;14.18;;;14.18;;
73154;SDS011;61364;52.418;7.382;2022-11-15T03:54:13;13.43;;;13.43;;
73154;SDS011;61364;52.418;7.382;2022-11-15T03:56:39;13.85;;;13.84;;
73154;SDS011;61364;52.418;7.382;2022-11-15T03:59:04;13.84;;;13.84;;
73154;SDS011;61364;52.418;7.382;2022-11-15T04:01:30;13.48;;;13.48;;
73154;SDS011;61364;52.418;7.382;2022-11-15T04:03:56;14.06;;;14.06;;
73154;SDS011;61364;52.418;7.382;2022-11-15T04:06:21;13.90;;;13.88;;
73154;SDS011;61364;52.418;7.382;2022-11-15T04:08:47;14.04;;;14.04;;
73154;SDS011;61364;52.418;7.382;2022-11-15T04:11:12;13.90;;;13.89;;
73154;SDS011;61364;52.418;7.382;2022-11-15T04:13:38;13.92;;;13.88;;
73154;SDS011;61364;52.418;7.382;2022-11-15T04:16:04;14.55;;;14.34;;
73154;SDS011;61364;52.418;7.382;2022-11-15T04:18:30;14.05;;;14.02;;
73154;SDS011;61364;52.418;7.382;2022-11-15T04:20:55;13.86;;;13.86;;
73154;SDS011;61364;52.418;7.382;2022-11-15T04:23:39;14.04;;;14.04;;
73154;SDS011;61364;52.418;7.382;2022-11-15T04:26:20;13.53;;;13.53;;
73154;SDS011;61364;52.418;7.382;2022-11-15T04:28:48;13.23;;;13.19;;
73154;SDS011;61364;52.418;7.382;2022-11-15T04:31:32;13.39;;;13.34;;
73154;SDS011;61364;52.418;7.382;2022-11-15T04:33:58;13.53;;;13.53;;
73154;SDS011;61364;52.418;7.382;2022-11-15T04:36:24;12.71;;;12.68;;
73154;SDS011;61364;52.418;7.382;2022-11-15T04:39:09;13.96;;;13.87;;
73154;SDS011;61364;52.418;7.382;2022-11-15T04:41:34;12.44;;;12.38;;
73154;SDS011;61364;52.418;7.382;2022-11-15T04:44:00;13.10;;;13.10;;
73154;SDS011;61364;52.418;7.382;2022-11-15T04:46:26;12.41;;;12.41;;
73154;SDS011;61364;52.418;7.382;2022-11-15T04:48:53;12.30;;;12.29;;
73154;SDS011;61364;52.418;7.382;2022-11-15T04:51:20;12.58;;;12.58;;
73154;SDS011;61364;52.418;7.382;2022-11-15T04:53:46;12.38;;;12.37;;
73154;SDS011;61364;52.418;7.382;2022-11-15T04:56:12;12.43;;;12.43;;
73154;SDS011;61364;52.418;7.382;2022-11-15T04:58:37;11.90;;;11.90;;
73154;SDS011;61364;52.418;7.382;2022-11-15T05:01:09;12.22;;;12.18;;
73154;SDS011;61364;52.418;7.382;2022-11-15T05:03:36;12.87;;;12.83;;
73154;SDS011;61364;52.418;7.382;2022-11-15T05:06:20;12.86;;;12.86;;
73154;SDS011;61364;52.418;7.382;2022-11-15T05:08:46;12.42;;;12.42;;
73154;SDS011;61364;52.418;7.382;2022-11-15T05:11:11;12.94;;;12.93;;
73154;SDS011;61364;52.418;7.382;2022-11-15T05:13:37;12.68;;;12.68;;
73154;SDS011;61364;52.418;7.382;2022-11-15T05:16:03;12.25;;;12.25;;
73154;SDS011;61364;52.418;7.382;2022-11-15T05:18:28;12.19;;;12.19;;
73154;SDS011;61364;52.418;7.382;2022-11-15T05:20:55;12.63;;;12.63;;
73154;SDS011;61364;52.418;7.382;2022-11-15T05:23:21;12.82;;;12.82;;
73154;SDS011;61364;52.418;7.382;2022-11-15T05:25:47;13.21;;;13.21;;
73154;SDS011;61364;52.418;7.382;2022-11-15T05:28:12;12.49;;;12.49;;
73154;SDS011;61364;52.418;7.382;2022-11-15T05:30:39;12.60;;;12.60;;
73154;SDS011;61364;52.418;7.382;2022-11-15T05:33:05;12.03;;;12.00;;
73154;SDS011;61364;52.418;7.382;2022-11-15T05:35:32;12.96;;;12.95;;
73154;SDS011;61364;52.418;7.382;2022-11-15T05:38:01;13.00;;;13.00;;
73154;SDS011;61364;52.418;7.382;2022-11-15T05:40:27;13.18;;;13.18;;
73154;SDS011;61364;52.418;7.382;2022-11-15T05:42:54;12.77;;;12.77;;
73154;SDS011;61364;52.418;7.382;2022-11-15T05:45:21;12.84;;;12.83;;
73154;SDS011;61364;52.418;7.382;2022-11-15T05:47:47;12.78;;;12.75;;
73154;SDS011;61364;52.418;7.382;2022-11-15T05:50:14;13.43;;;13.30;;
73154;SDS011;61364;52.418;7.382;2022-11-15T05:52:42;12.70;;;12.70;;
73154;SDS011;61364;52.418;7.382;2022-11-15T05:55:09;12.44;;;12.44;;
73154;SDS011;61364;52.418;7.382;2022-11-15T05:57:35;12.55;;;12.54;;
73154;SDS011;61364;52.418;7.382;2022-11-15T06:00:03;12.08;;;12.02;;
73154;SDS011;61364;52.418;7.382;2022-11-15T06:02:29;12.26;;;12.26;;
73154;SDS011;61364;52.418;7.382;2022-11-15T06:04:54;12.14;;;12.14;;
73154;SDS011;61364;52.418;7.382;2022-11-15T06:07:20;12.23;;;12.23;;
73154;SDS011;61364;52.418;7.382;2022-11-15T06:09:46;12.04;;;12.04;;
73154;SDS011;61364;52.418;7.382;2022-11-15T06:12:11;12.05;;;12.05;;
73154;SDS011;61364;52.418;7.382;2022-11-15T06:14:37;12.69;;;12.69;;
73154;SDS011;61364;52.418;7.382;2022-11-15T06:17:02;12.41;;;12.41;;
73154;SDS011;61364;52.418;7.382;2022-11-15T06:19:28;11.91;;;11.91;;
73154;SDS011;61364;52.418;7.382;2022-11-15T06:21:58;12.47;;;12.47;;
73154;SDS011;61364;52.418;7.382;2022-11-15T06:24:24;12.10;;;12.10;;
73154;SDS011;61364;52.418;7.382;2022-11-15T06:26:50;11.78;;;11.78;;
73154;SDS011;61364;52.418;7.382;2022-11-15T06:29:16;11.81;;;11.81;;
73154;SDS011;61364;52.418;7.382;2022-11-15T06:31:42;11.69;;;11.69;;
73154;SDS011;61364;52.418;7.382;2022-11-15T06:34:08;11.54;;;11.54;;
73154;SDS011;61364;52.418;7.382;2022-11-15T06:36:34;11.79;;;11.79;;
73154;SDS011;61364;52.418;7.382;2022-11-15T06:39:02;11.53;;;11.53;;
73154;SDS011;61364;52.418;7.382;2022-11-15T06:41:28;11.51;;;11.51;;
73154;SDS011;61364;52.418;7.382;2022-11-15T06:43:54;11.63;;;11.63;;
73154;SDS011;61364;52.418;7.382;2022-11-15T06:46:19;11.77;;;11.77;;
73154;SDS011;61364;52.418;7.382;2022-11-15T06:48:45;11.44;;;11.44;;
73154;SDS011;61364;52.418;7.382;2022-11-15T06:51:11;11.66;;;11.65;;
73154;SDS011;61364;52.418;7.382;2022-11-15T06:53:36;11.79;;;11.75;;
73154;SDS011;61364;52.418;7.382;2022-11-15T06:56:03;11.62;;;11.62;;
73154;SDS011;61364;52.418;7.382;2022-11-15T06:58:29;11.52;;;11.52;;
73154;SDS011;61364;52.418;7.382;2022-11-15T07:01:06;11.27;;;11.27;;
73154;SDS011;61364;52.418;7.382;2022-11-15T07:03:40;11.69;;;11.69;;
73154;SDS011;61364;52.418;7.382;2022-11-15T07:06:07;11.50;;;11.50;;
73154;SDS011;61364;52.418;7.382;2022-11-15T07:08:33;11.76;;;11.75;;
73154;SDS011;61364;52.418;7.382;2022-11-15T07:11:00;11.31;;;11.31;;
73154;SDS011;61364;52.418;7.382;2022-11-15T07:13:28;11.32;;;11.32;;
73154;SDS011;61364;52.418;7.382;2022-11-15T07:15:54;11.25;;;11.25;;
73154;SDS011;61364;52.418;7.382;2022-11-15T07:18:20;11.05;;;11.05;;
73154;SDS011;61364;52.418;7.382;2022-11-15T07:20:46;11.48;;;11.48;;
73154;SDS011;61364;52.418;7.382;2022-11-15T07:23:13;11.15;;;11.15;;
73154;SDS011;61364;52.418;7.382;2022-11-15T07:25:38;11.36;;;11.33;;
73154;SDS011;61364;52.418;7.382;2022-11-15T07:28:04;11.36;;;11.36;;
73154;SDS011;61364;52.418;7.382;2022-11-15T07:30:30;11.02;;;11.02;;
73154;SDS011;61364;52.418;7.382;2022-11-15T07:32:57;10.76;;;10.76;;
73154;SDS011;61364;52.418;7.382;2022-11-15T07:35:23;11.45;;;11.45;;
73154;SDS011;61364;52.418;7.382;2022-11-15T07:37:56;10.90;;;10.90;;
73154;SDS011;61364;52.418;7.382;2022-11-15T07:40:22;11.30;;;11.30;;
73154;SDS011;61364;52.418;7.382;2022-11-15T07:42:48;11.42;;;11.42;;
73154;SDS011;61364;52.418;7.382;2022-11-15T07:45:22;11.64;;;11.64;;
73154;SDS011;61364;52.418;7.382;2022-11-15T07:47:48;11.72;;;11.72;;
73154;SDS011;61364;52.418;7.382;2022-11-15T07:50:15;11.81;;;11.81;;
73154;SDS011;61364;52.418;7.382;2022-11-15T07:52:41;11.92;;;11.92;;
73154;SDS011;61364;52.418;7.382;2022-11-15T07:55:06;12.01;;;12.01;;
73154;SDS011;61364;52.418;7.382;2022-11-15T07:57:32;11.57;;;11.57;;
73154;SDS011;61364;52.418;7.382;2022-11-15T07:59:57;12.18;;;12.18;;
73154;SDS011;61364;52.418;7.382;2022-11-15T08:02:23;11.82;;;11.82;;
73154;SDS011;61364;52.418;7.382;2022-11-15T08:04:49;12.06;;;12.06;;
73154;SDS011;61364;52.418;7.382;2022-11-15T08:07:14;11.93;;;11.93;;
73154;SDS011;61364;52.418;7.382;2022-11-15T08:09:40;12.40;;;12.40;;
73154;SDS011;61364;52.418;7.382;2022-11-15T08:12:05;12.48;;;12.48;;
73154;SDS011;61364;52.418;7.382;2022-11-15T08:14:31;12.36;;;12.36;;
73154;SDS011;61364;52.418;7.382;2022-11-15T08:16:56;12.47;;;12.47;;
73154;SDS011;61364;52.418;7.382;2022-11-15T08:19:22;12.23;;;12.23;;
73154;SDS011;61364;52.418;7.382;2022-11-15T08:21:47;12.58;;;12.51;;
73154;SDS011;61364;52.418;7.382;2022-11-15T08:24:13;12.21;;;12.21;;
73154;SDS011;61364;52.418;7.382;2022-11-15T08:26:39;12.82;;;12.82;;
73154;SDS011;61364;52.418;7.382;2022-11-15T08:29:05;12.09;;;12.09;;
73154;SDS011;61364;52.418;7.382;2022-11-15T08:31:34;12.46;;;12.46;;
73154;SDS011;61364;52.418;7.382;2022-11-15T08:34:02;12.80;;;12.80;;
73154;SDS011;61364;52.418;7.382;2022-11-15T08:36:28;12.21;;;12.21;;
73154;SDS011;61364;52.418;7.382;2022-11-15T08:38:55;12.22;;;12.22;;
73154;SDS011;61364;52.418;7.382;2022-11-15T08:41:28;12.33;;;12.33;;
73154;SDS011;61364;52.418;7.382;2022-11-15T08:43:56;12.07;;;12.07;;
73154;SDS011;61364;52.418;7.382;2022-11-15T08:46:22;12.60;;;12.60;;
73154;SDS011;61364;52.418;7.382;2022-11-15T08:48:47;12.84;;;12.84;;
73154;SDS011;61364;52.418;7.382;2022-11-15T08:51:13;12.13;;;12.13;;
73154;SDS011;61364;52.418;7.382;2022-11-15T08:53:39;12.64;;;12.64;;
73154;SDS011;61364;52.418;7.382;2022-11-15T08:56:09;12.17;;;12.17;;
73154;SDS011;61364;52.418;7.382;2022-11-15T08:58:35;12.51;;;12.51;;
73154;SDS011;61364;52.418;7.382;2022-11-15T09:01:01;12.26;;;12.26;;
73154;SDS011;61364;52.418;7.382;2022-11-15T09:03:26;11.95;;;11.95;;
73154;SDS011;61364;52.418;7.382;2022-11-15T09:05:55;12.46;;;12.46;;
73154;SDS011;61364;52.418;7.382;2022-11-15T09:08:22;12.56;;;12.56;;
73154;SDS011;61364;52.418;7.382;2022-11-15T09:10:47;11.91;;;11.85;;
73154;SDS011;61364;52.418;7.382;2022-11-15T09:13:13;11.56;;;11.56;;
73154;SDS011;61364;52.418;7.382;2022-11-15T09:15:39;11.99;;;11.99;;
73154;SDS011;61364;52.418;7.382;2022-11-15T09:18:05;11.80;;;11.80;;
73154;SDS011;61364;52.418;7.382;2022-11-15T09:20:31;11.65;;;11.65;;
73154;SDS011;61364;52.418;7.382;2022-11-15T09:23:02;11.79;;;11.79;;
73154;SDS011;61364;52.418;7.382;2022-11-15T09:25:29;11.20;;;11.20;;
73154;SDS011;61364;52.418;7.382;2022-11-15T09:27:55;11.50;;;11.50;;
73154;SDS011;61364;52.418;7.382;2022-11-15T09:30:21;11.21;;;11.21;;
73154;SDS011;61364;52.418;7.382;2022-11-15T09:32:47;11.26;;;11.26;;
73154;SDS011;61364;52.418;7.382;2022-11-15T09:35:12;11.73;;;11.73;;
73154;SDS011;61364;52.418;7.382;2022-11-15T09:37:38;11.40;;;11.40;;
73154;SDS011;61364;52.418;7.382;2022-11-15T09:40:04;11.68;;;11.68;;
73154;SDS011;61364;52.418;7.382;2022-11-15T09:42:41;11.03;;;11.03;;
73154;SDS011;61364;52.418;7.382;2022-11-15T09:45:34;11.03;;;11.03;;
73154;SDS011;61364;52.418;7.382;2022-11-15T09:50:41;10.72;;;10.72;;
73154;SDS011;61364;52.418;7.382;2022-11-15T09:53:13;11.01;;;11.01;;
73154;SDS011;61364;52.418;7.382;2022-11-15T09:55:55;10.48;;;10.48;;
73154;SDS011;61364;52.418;7.382;2022-11-15T09:58:26;10.31;;;10.30;;
73154;SDS011;61364;52.418;7.382;2022-11-15T10:01:00;10.17;;;10.17;;
73154;SDS011;61364;52.418;7.382;2022-11-15T10:03:35;10.39;;;10.39;;
73154;SDS011;61364;52.418;7.382;2022-11-15T10:06:04;10.27;;;10.27;;
73154;SDS011;61364;52.418;7.382;2022-11-15T10:11:31;9.67;;;9.67;;
73154;SDS011;61364;52.418;7.382;2022-11-15T10:14:00;9.90;;;9.90;;
73154;SDS011;61364;52.418;7.382;2022-11-15T10:24:12;9.02;;;9.02;;
73154;SDS011;61364;52.418;7.382;2022-11-15T10:26:38;8.35;;;8.35;;
73154;SDS011;61364;52.418;7.382;2022-11-15T10:29:04;7.82;;;7.82;;
73154;SDS011;61364;52.418;7.382;2022-11-15T10:31:30;7.89;;;7.89;;
73154;SDS011;61364;52.418;7.382;2022-11-15T10:34:15;8.12;;;8.12;;
73154;SDS011;61364;52.418;7.382;2022-11-15T10:36:53;8.34;;;8.34;;
73154;SDS011;61364;52.418;7.382;2022-11-15T10:39:20;7.72;;;7.72;;
73154;SDS011;61364;52.418;7.382;2022-11-15T10:41:46;7.63;;;7.63;;
73154;SDS011;61364;52.418;7.382;2022-11-15T10:46:40;7.87;;;7.87;;
73154;SDS011;61364;52.418;7.382;2022-11-15T10:49:11;7.82;;;7.82;;
73154;SDS011;61364;52.418;7.382;2022-11-15T10:51:40;9.24;;;9.24;;
73154;SDS011;61364;52.418;7.382;2022-11-15T10:54:08;19.17;;;19.15;;
73154;SDS011;61364;52.418;7.382;2022-11-15T10:56:36;14.82;;;14.82;;
73154;SDS011;61364;52.418;7.382;2022-11-15T10:59:02;10.71;;;10.71;;
73154;SDS011;61364;52.418;7.382;2022-11-15T11:01:28;7.61;;;7.61;;
73154;SDS011;61364;52.418;7.382;2022-11-15T11:03:59;6.96;;;6.96;;
73154;SDS011;61364;52.418;7.382;2022-11-15T11:06:25;9.86;;;9.86;;
73154;SDS011;61364;52.418;7.382;2022-11-15T11:08:56;14.50;;;14.50;;
73154;SDS011;61364;52.418;7.382;2022-11-15T11:11:22;24.88;;;24.87;;
73154;SDS011;61364;52.418;7.382;2022-11-15T11:13:48;24.81;;;24.81;;
73154;SDS011;61364;52.418;7.382;2022-11-15T11:21:08;9.08;;;9.08;;
73154;SDS011;61364;52.418;7.382;2022-11-15T11:44:39;4.41;;;4.30;;
73154;SDS011;61364;52.418;7.382;2022-11-15T11:47:11;2.52;;;2.51;;
73154;SDS011;61364;52.418;7.382;2022-11-15T11:52:12;9.60;;;9.58;;
73154;SDS011;61364;52.418;7.382;2022-11-15T11:54:52;11.35;;;11.28;;
73154;SDS011;61364;52.418;7.382;2022-11-15T11:57:33;7.86;;;7.84;;
73154;SDS011;61364;52.418;7.382;2022-11-15T12:00:21;12.38;;;12.24;;
73154;SDS011;61364;52.418;7.382;2022-11-15T12:02:50;4.70;;;4.66;;
73154;SDS011;61364;52.418;7.382;2022-11-15T12:05:25;2.33;;;2.33;;
73154;SDS011;61364;52.418;7.382;2022-11-15T12:07:54;5.03;;;5.03;;
73154;SDS011;61364;52.418;7.382;2022-11-15T12:10:33;28.13;;;27.91;;
73154;SDS011;61364;52.418;7.382;2022-11-15T12:13:05;17.98;;;17.86;;
73154;SDS011;61364;52.418;7.382;2022-11-15T12:15:39;5.79;;;5.79;;
73154;SDS011;61364;52.418;7.382;2022-11-15T12:18:10;5.13;;;5.13;;
73154;SDS011;61364;52.418;7.382;2022-11-15T12:20:40;3.89;;;3.89;;
73154;SDS011;61364;52.418;7.382;2022-11-15T12:23:13;3.87;;;3.87;;
73154;SDS011;61364;52.418;7.382;2022-11-15T12:25:49;5.28;;;5.28;;
73154;SDS011;61364;52.418;7.382;2022-11-15T12:28:19;4.43;;;4.43;;
73154;SDS011;61364;52.418;7.382;2022-11-15T12:30:54;4.06;;;4.06;;
73154;SDS011;61364;52.418;7.382;2022-11-15T12:36:10;5.90;;;5.90;;
73154;SDS011;61364;52.418;7.382;2022-11-15T12:41:16;8.85;;;8.85;;
73154;SDS011;61364;52.418;7.382;2022-11-15T12:43:44;7.82;;;7.82;;
73154;SDS011;61364;52.418;7.382;2022-11-15T12:46:12;5.35;;;5.35;;
73154;SDS011;61364;52.418;7.382;2022-11-15T12:51:04;4.40;;;4.40;;
73154;SDS011;61364;52.418;7.382;2022-11-15T12:53:31;4.51;;;4.51;;
73154;SDS011;61364;52.418;7.382;2022-11-15T12:56:17;3.63;;;3.63;;
73154;SDS011;61364;52.418;7.382;2022-11-15T13:06:34;2.73;;;2.73;;
73154;SDS011;61364;52.418;7.382;2022-11-15T13:09:00;4.15;;;4.15;;
73154;SDS011;61364;52.418;7.382;2022-11-15T13:11:45;2.78;;;2.78;;
73154;SDS011;61364;52.418;7.382;2022-11-15T13:14:45;3.73;;;3.73;;
73154;SDS011;61364;52.418;7.382;2022-11-15T13:17:16;2.37;;;2.37;;
73154;SDS011;61364;52.418;7.382;2022-11-15T13:19:52;2.13;;;2.13;;
73154;SDS011;61364;52.418;7.382;2022-11-15T13:22:24;2.16;;;2.16;;
73154;SDS011;61364;52.418;7.382;2022-11-15T13:27:59;1.67;;;1.67;;
73154;SDS011;61364;52.418;7.382;2022-11-15T13:30:28;1.67;;;1.67;;
73154;SDS011;61364;52.418;7.382;2022-11-15T13:32:57;1.71;;;1.71;;
73154;SDS011;61364;52.418;7.382;2022-11-15T13:35:27;2.29;;;2.29;;
73154;SDS011;61364;52.418;7.382;2022-11-15T13:37:55;2.68;;;2.68;;
73154;SDS011;61364;52.418;7.382;2022-11-15T13:40:24;1.58;;;1.58;;
73154;SDS011;61364;52.418;7.382;2022-11-15T13:42:55;1.43;;;1.43;;
73154;SDS011;61364;52.418;7.382;2022-11-15T13:45:23;1.82;;;1.82;;
73154;SDS011;61364;52.418;7.382;2022-11-15T13:47:56;1.73;;;1.73;;
73154;SDS011;61364;52.418;7.382;2022-11-15T13:50:27;1.43;;;1.43;;
73154;SDS011;61364;52.418;7.382;2022-11-15T13:52:57;1.33;;;1.33;;
73154;SDS011;61364;52.418;7.382;2022-11-15T13:55:25;2.54;;;2.54;;
73154;SDS011;61364;52.418;7.382;2022-11-15T13:57:53;1.59;;;1.59;;
73154;SDS011;61364;52.418;7.382;2022-11-15T14:00:35;1.33;;;1.33;;
73154;SDS011;61364;52.418;7.382;2022-11-15T14:03:26;1.29;;;1.29;;
73154;SDS011;61364;52.418;7.382;2022-11-15T14:06:10;1.59;;;1.59;;
73154;SDS011;61364;52.418;7.382;2022-11-15T14:08:39;1.43;;;1.43;;
73154;SDS011;61364;52.418;7.382;2022-11-15T14:11:13;1.43;;;1.43;;
73154;SDS011;61364;52.418;7.382;2022-11-15T14:13:41;1.46;;;1.46;;
73154;SDS011;61364;52.418;7.382;2022-11-15T14:16:20;1.35;;;1.35;;
73154;SDS011;61364;52.418;7.382;2022-11-15T14:19:00;1.48;;;1.48;;
73154;SDS011;61364;52.418;7.382;2022-11-15T14:21:26;1.51;;;1.51;;
73154;SDS011;61364;52.418;7.382;2022-11-15T14:24:13;1.76;;;1.76;;
73154;SDS011;61364;52.418;7.382;2022-11-15T14:26:39;1.86;;;1.86;;
73154;SDS011;61364;52.418;7.382;2022-11-15T14:31:48;2.05;;;2.05;;
73154;SDS011;61364;52.418;7.382;2022-11-15T14:34:14;2.41;;;2.41;;
73154;SDS011;61364;52.418;7.382;2022-11-15T14:36:39;1.99;;;1.99;;
73154;SDS011;61364;52.418;7.382;2022-11-15T14:39:05;2.28;;;2.28;;
73154;SDS011;61364;52.418;7.382;2022-11-15T14:41:33;1.81;;;1.81;;
73154;SDS011;61364;52.418;7.382;2022-11-15T14:44:03;1.70;;;1.70;;
73154;SDS011;61364;52.418;7.382;2022-11-15T14:46:29;1.76;;;1.76;;
73154;SDS011;61364;52.418;7.382;2022-11-15T14:48:54;1.83;;;1.83;;
73154;SDS011;61364;52.418;7.382;2022-11-15T14:51:20;1.75;;;1.75;;
73154;SDS011;61364;52.418;7.382;2022-11-15T14:53:46;1.75;;;1.75;;
73154;SDS011;61364;52.418;7.382;2022-11-15T14:56:12;1.80;;;1.80;;
73154;SDS011;61364;52.418;7.382;2022-11-15T14:58:39;1.93;;;1.93;;
73154;SDS011;61364;52.418;7.382;2022-11-15T15:01:12;1.88;;;1.88;;
73154;SDS011;61364;52.418;7.382;2022-11-15T15:03:38;2.39;;;2.39;;
73154;SDS011;61364;52.418;7.382;2022-11-15T15:06:04;2.00;;;2.00;;
73154;SDS011;61364;52.418;7.382;2022-11-15T15:08:29;1.81;;;1.81;;
73154;SDS011;61364;52.418;7.382;2022-11-15T15:10:55;1.76;;;1.75;;
73154;SDS011;61364;52.418;7.382;2022-11-15T15:13:22;1.66;;;1.66;;
73154;SDS011;61364;52.418;7.382;2022-11-15T15:15:48;1.85;;;1.85;;
73154;SDS011;61364;52.418;7.382;2022-11-15T15:18:15;1.83;;;1.83;;
73154;SDS011;61364;52.418;7.382;2022-11-15T15:20:41;2.38;;;2.38;;
73154;SDS011;61364;52.418;7.382;2022-11-15T15:23:18;1.90;;;1.90;;
73154;SDS011;61364;52.418;7.382;2022-11-15T15:25:45;1.62;;;1.62;;
73154;SDS011;61364;52.418;7.382;2022-11-15T15:28:11;1.66;;;1.66;;
73154;SDS011;61364;52.418;7.382;2022-11-15T15:30:37;1.95;;;1.95;;
73154;SDS011;61364;52.418;7.382;2022-11-15T15:33:03;1.95;;;1.95;;
73154;SDS011;61364;52.418;7.382;2022-11-15T15:35:30;2.03;;;2.03;;
73154;SDS011;61364;52.418;7.382;2022-11-15T15:37:57;1.80;;;1.80;;
73154;SDS011;61364;52.418;7.382;2022-11-15T15:40:24;1.98;;;1.98;;
73154;SDS011;61364;52.418;7.382;2022-11-15T15:42:51;2.08;;;2.08;;
73154;SDS011;61364;52.418;7.382;2022-11-15T15:45:17;2.05;;;2.05;;
73154;SDS011;61364;52.418;7.382;2022-11-15T15:47:43;2.06;;;2.06;;
73154;SDS011;61364;52.418;7.382;2022-11-15T15:50:25;2.14;;;2.14;;
73154;SDS011;61364;52.418;7.382;2022-11-15T15:52:53;2.03;;;2.03;;
73154;SDS011;61364;52.418;7.382;2022-11-15T15:55:20;2.03;;;2.03;;
73154;SDS011;61364;52.418;7.382;2022-11-15T15:57:46;2.37;;;2.37;;
73154;SDS011;61364;52.418;7.382;2022-11-15T16:00:12;3.62;;;3.62;;
73154;SDS011;61364;52.418;7.382;2022-11-15T16:02:38;13.84;;;13.84;;
73154;SDS011;61364;52.418;7.382;2022-11-15T16:05:04;13.02;;;12.85;;
73154;SDS011;61364;52.418;7.382;2022-11-15T16:07:30;17.53;;;17.30;;
73154;SDS011;61364;52.418;7.382;2022-11-15T16:09:56;13.61;;;13.43;;